Time;durP1;ratioP1;P1;durP2;ratioP2;P2;SDS_P1;SDS_P2;PMS_P1;PMS_P2;Temp;Humidity;BMP_temperature;BMP_pressure;BME280_temperature;BME280_humidity;BME280_pressure;Samples;Min_cycle;Max_cycle;Signal;HPM_P1;HPM_P2
2022/10/17 00:00:28;;;;;;;6.95;3.83;;;12.90;99.90;;;;;;5078738;28;20536;-84
2022/10/17 00:02:55;;;;;;;5.72;3.47;;;;;;;;;;5078264;28;20209;-84
2022/10/17 00:05:21;;;;;;;4.47;3.22;;;12.60;99.90;;;;;;5078268;28;20190;-83
2022/10/17 00:07:46;;;;;;;6.43;3.28;;;12.50;99.90;;;;;;5061383;28;20182;-84
2022/10/17 00:10:13;;;;;;;5.97;3.42;;;;;;;;;;5061868;28;20174;-83
2022/10/17 00:12:39;;;;;;;5.95;3.70;;;;;;;;;;5078489;28;20207;-84
2022/10/17 00:15:06;;;;;;;5.18;3.67;;;12.80;99.90;;;;;;5096311;28;20207;-84
2022/10/17 00:17:32;;;;;;;7.78;3.10;;;12.50;99.90;;;;;;5078039;28;20174;-84
2022/10/17 00:19:59;;;;;;;6.68;3.50;;;12.40;99.90;;;;;;5095630;28;20235;-83
2022/10/17 00:22:25;;;;;;;5.55;3.13;;;12.10;99.90;;;;;;5096400;28;20210;-83
2022/10/17 00:24:51;;;;;;;6.57;2.90;;;;;;;;;;5095834;28;20214;-83
2022/10/17 00:27:16;;;;;;;6.03;3.88;;;12.70;99.90;;;;;;5077897;28;20197;-83
2022/10/17 00:29:42;;;;;;;6.20;3.40;;;;;;;;;;5077639;28;20670;-86
2022/10/17 00:32:08;;;;;;;8.95;3.92;;;12.30;99.90;;;;;;5095696;28;20240;-83
2022/10/17 00:34:34;;;;;;;5.47;3.30;;;12.10;99.90;;;;;;5077786;28;20631;-83
2022/10/17 00:37:00;;;;;;;6.72;3.63;;;;;;;;;;5060948;28;20236;-83
2022/10/17 00:39:25;;;;;;;5.63;3.55;;;12.30;99.90;;;;;;5077979;28;20186;-83
2022/10/17 00:41:52;;;;;;;4.97;3.15;;;12.50;99.90;;;;;;5077554;28;20179;-83
2022/10/17 00:44:30;;;;;;;6.88;3.30;;;12.20;99.90;;;;;;5077545;28;20277;-83
2022/10/17 00:46:57;;;;;;;3.70;2.55;;;12.00;99.90;;;;;;5095676;28;20180;-83
2022/10/17 00:49:25;;;;;;;4.35;3.47;;;12.30;99.90;;;;;;5095900;28;20638;-83
2022/10/17 00:51:57;;;;;;;10.85;4.47;;;12.10;99.90;;;;;;5061081;28;20180;-83
2022/10/17 00:54:30;;;;;;;9.88;4.15;;;12.20;99.90;;;;;;5077320;28;20570;-83
2022/10/17 00:56:56;;;;;;;6.22;3.83;;;11.90;99.90;;;;;;5095732;28;20173;-83
2022/10/17 00:59:23;;;;;;;5.57;3.70;;;11.90;99.90;;;;;;5095521;28;20231;-83
2022/10/17 01:02:15;;;;;;;5.72;3.78;;;11.90;99.90;;;;;;5095666;28;20235;-84
2022/10/17 01:04:45;;;;;;;9.43;4.85;;;12.10;99.90;;;;;;5095457;28;20167;-83
2022/10/17 01:07:11;;;;;;;11.43;4.75;;;11.80;99.90;;;;;;5095913;28;20175;-83
2022/10/17 01:09:38;;;;;;;8.43;4.70;;;11.70;99.90;;;;;;5095610;28;20178;-83
2022/10/17 01:12:42;;;;;;;11.63;4.68;;;11.40;99.90;;;;;;5044103;28;20179;-81
2022/10/17 01:15:55;;;;;;;7.88;4.57;;;11.50;99.90;;;;;;5072952;28;20214;-84
2022/10/17 01:18:51;;;;;;;16.30;5.18;;;11.60;99.90;;;;;;4977253;28;20190;-84
2022/10/17 01:21:27;;;;;;;16.42;4.38;;;11.40;99.90;;;;;;5077303;28;20178;-84
2022/10/17 01:24:20;;;;;;;12.35;4.93;;;11.50;99.90;;;;;;5095112;28;20167;-83
2022/10/17 01:26:55;;;;;;;10.23;5.25;;;;;;;;;;5095449;28;20158;-84
2022/10/17 01:29:52;;;;;;;9.50;4.47;;;11.40;99.90;;;;;;5077114;28;20178;-83
2022/10/17 01:32:19;;;;;;;10.00;5.40;;;11.40;99.90;;;;;;5095475;28;20186;-83
2022/10/17 01:34:52;;;;;;;8.23;4.40;;;11.40;99.90;;;;;;5086783;28;20205;-83
2022/10/17 01:37:30;;;;;;;9.30;4.18;;;11.40;99.90;;;;;;5119042;28;20154;-82
2022/10/17 01:40:09;;;;;;;7.03;3.63;;;11.10;99.90;;;;;;5101825;28;20201;-84
2022/10/17 01:42:43;;;;;;;8.88;4.68;;;11.60;99.90;;;;;;5119688;28;20151;-83
2022/10/17 01:45:16;;;;;;;17.92;5.50;;;11.10;99.90;;;;;;5105233;28;20170;-84
2022/10/17 01:47:43;;;;;;;8.20;3.20;;;11.50;99.90;;;;;;5097888;28;20173;-84
2022/10/17 01:50:42;;;;;;;9.48;3.85;;;11.00;99.90;;;;;;5106504;28;20188;-82
2022/10/17 01:53:17;;;;;;;6.53;3.42;;;11.10;99.90;;;;;;5119170;27;20151;-85
2022/10/17 01:55:46;;;;;;;7.55;4.07;;;11.30;99.90;;;;;;5119157;28;20281;-84
2022/10/17 01:58:19;;;;;;;4.57;3.20;;;11.20;99.90;;;;;;5075292;28;20260;-84
2022/10/17 02:00:47;;;;;;;8.00;3.55;;;11.20;99.90;;;;;;5077988;28;20179;-84
2022/10/17 02:03:17;;;;;;;6.05;3.78;;;11.40;99.90;;;;;;5077096;28;20171;-84
2022/10/17 02:05:43;;;;;;;8.07;3.40;;;11.10;99.90;;;;;;5095964;28;20261;-84
2022/10/17 02:08:10;;;;;;;7.53;3.67;;;10.60;99.90;;;;;;5095211;28;20258;-84
2022/10/17 02:10:42;;;;;;;6.85;3.50;;;10.80;99.90;;;;;;5095431;28;20174;-84
2022/10/17 02:13:11;;;;;;;13.73;4.38;;;10.50;99.90;;;;;;5094327;28;20159;-84
2022/10/17 02:15:55;;;;;;;14.43;5.32;;;10.60;99.90;;;;;;5095029;28;20234;-84
2022/10/17 02:18:45;;;;;;;11.77;4.38;;;10.60;99.90;;;;;;5077125;28;20619;-84
2022/10/17 02:21:41;;;;;;;9.15;3.60;;;11.00;99.90;;;;;;5094581;28;20166;-84
2022/10/17 02:24:10;;;;;;;10.43;3.97;;;10.50;99.90;;;;;;5062756;28;20579;-84
2022/10/17 02:26:59;;;;;;;9.00;3.58;;;10.40;99.90;;;;;;5094600;28;20179;-84
2022/10/17 02:29:33;;;;;;;5.77;3.70;;;10.80;99.90;;;;;;5094927;28;20196;-84
2022/10/17 02:32:10;;;;;;;5.38;3.42;;;10.60;99.90;;;;;;5076367;28;20258;-85
2022/10/17 02:34:41;;;;;;;11.07;3.78;;;10.70;99.90;;;;;;5094272;28;20292;-84
2022/10/17 02:37:09;;;;;;;5.88;3.53;;;10.80;99.90;;;;;;5094253;28;20159;-84
2022/10/17 02:39:38;;;;;;;5.80;3.30;;;10.60;99.90;;;;;;5094162;28;20252;-84
2022/10/17 02:42:07;;;;;;;8.45;4.43;;;10.70;99.90;;;;;;5093833;28;20316;-85
2022/10/17 02:44:36;;;;;;;7.80;3.45;;;11.00;99.90;;;;;;5075349;28;20178;-84
2022/10/17 02:47:15;;;;;;;6.47;3.30;;;11.10;99.90;;;;;;5093533;28;20261;-84
2022/10/17 02:49:46;;;;;;;5.07;2.97;;;10.90;99.90;;;;;;5093828;28;20167;-83
2022/10/17 02:52:51;;;;;;;5.00;3.63;;;10.80;99.90;;;;;;5074578;28;20174;-84
2022/10/17 02:55:27;;;;;;;8.48;3.72;;;10.60;99.90;;;;;;5093039;28;20237;-84
2022/10/17 02:57:59;;;;;;;6.60;3.28;;;10.60;99.90;;;;;;5093452;28;20170;-83
2022/10/17 03:00:26;;;;;;;4.90;3.33;;;10.80;99.90;;;;;;5074844;28;20174;-83
2022/10/17 03:02:53;;;;;;;6.88;3.40;;;10.40;99.90;;;;;;5093280;28;20177;-83
2022/10/17 03:05:25;;;;;;;7.32;4.07;;;10.20;99.90;;;;;;5074767;28;20640;-83
2022/10/17 03:07:52;;;;;;;6.82;4.38;;;10.50;99.90;;;;;;5092916;28;20169;-84
2022/10/17 03:10:18;;;;;;;9.18;3.58;;;10.90;99.90;;;;;;5092404;28;20182;-83
2022/10/17 03:12:44;;;;;;;4.20;3.38;;;10.50;99.90;;;;;;5093153;28;20642;-84
2022/10/17 03:15:10;;;;;;;9.80;4.10;;;10.70;99.90;;;;;;5074333;28;20229;-83
2022/10/17 03:17:37;;;;;;;10.85;3.65;;;10.60;99.90;;;;;;5092663;28;20179;-83
2022/10/17 03:20:04;;;;;;;11.85;4.82;;;10.60;99.90;;;;;;5092074;28;20185;-86
2022/10/17 03:22:30;;;;;;;8.48;4.55;;;10.70;99.90;;;;;;5091974;28;20214;-84
2022/10/17 03:24:56;;;;;;;10.55;5.05;;;;;;;;;;5092541;28;20187;-84
2022/10/17 03:27:22;;;;;;;9.38;4.70;;;10.60;99.90;;;;;;5075646;28;20179;-84
2022/10/17 03:29:48;;;;;;;7.50;3.90;;;;;;;;;;5079393;28;20230;-84
2022/10/17 03:32:14;;;;;;;7.63;4.47;;;10.40;99.90;;;;;;5076343;28;20255;-84
2022/10/17 03:34:39;;;;;;;6.07;4.03;;;10.50;99.90;;;;;;5057758;28;20635;-83
2022/10/17 03:37:06;;;;;;;8.65;4.28;;;;;;;;;;5041906;28;20179;-88
2022/10/17 03:39:31;;;;;;;4.70;3.43;;;10.40;99.90;;;;;;5058733;28;20270;-84
2022/10/17 03:41:57;;;;;;;12.00;4.60;;;;;;;;;;5061314;28;20320;-84
2022/10/17 03:44:23;;;;;;;6.15;4.45;;;10.00;99.90;;;;;;5078289;28;20636;-84
2022/10/17 03:46:49;;;;;;;4.68;3.92;;;;;;;;;;5061974;28;20174;-82
2022/10/17 03:49:15;;;;;;;6.50;3.63;;;10.70;99.90;;;;;;5096222;28;20209;-82
2022/10/17 03:51:41;;;;;;;5.93;3.55;;;;;;;;;;5095825;28;20186;-85
2022/10/17 03:54:06;;;;;;;7.05;3.83;;;10.10;99.90;;;;;;5078625;28;20363;-85
2022/10/17 03:56:32;;;;;;;6.45;4.13;;;10.20;99.90;;;;;;5078172;28;20216;-85
2022/10/17 03:58:58;;;;;;;5.93;3.30;;;10.20;99.90;;;;;;5078764;28;20618;-84
2022/10/17 04:01:24;;;;;;;8.60;3.92;;;;;;;;;;5077691;28;20220;-84
2022/10/17 04:03:54;;;;;;;5.07;3.33;;;10.70;99.90;;;;;;5096373;28;20213;-84
2022/10/17 04:06:21;;;;;;;7.10;4.57;;;10.30;99.90;;;;;;5095651;28;20255;-85
2022/10/17 04:08:47;;;;;;;7.75;3.97;;;10.90;99.90;;;;;;5061563;28;20212;-84
2022/10/17 04:11:16;;;;;;;6.80;3.78;;;10.20;99.90;;;;;;5096196;28;20175;-85
2022/10/17 04:13:42;;;;;;;5.05;3.40;;;10.90;99.90;;;;;;5096520;28;20224;-84
2022/10/17 04:16:11;;;;;;;7.13;3.67;;;10.90;99.90;;;;;;5078223;28;20249;-84
2022/10/17 04:18:37;;;;;;;8.13;4.28;;;10.90;99.90;;;;;;5095658;28;20258;-84
2022/10/17 04:21:05;;;;;;;6.93;3.42;;;10.60;99.90;;;;;;5096676;28;20262;-84
2022/10/17 04:23:30;;;;;;;7.20;3.17;;;10.50;99.90;;;;;;5077861;28;20677;-84
2022/10/17 04:26:00;;;;;;;8.97;4.50;;;10.60;99.90;;;;;;5095424;28;20182;-84
2022/10/17 04:28:26;;;;;;;5.00;3.55;;;11.00;99.90;;;;;;5095185;28;20285;-84
2022/10/17 04:31:04;;;;;;;5.85;3.72;;;10.70;99.90;;;;;;5095807;28;20171;-84
2022/10/17 04:33:30;;;;;;;7.43;3.90;;;10.40;99.90;;;;;;5095580;28;20171;-84
2022/10/17 04:36:10;;;;;;;6.57;3.55;;;11.10;99.90;;;;;;5077493;28;20210;-86
2022/10/17 04:38:37;;;;;;;9.07;3.72;;;;;;;;;;5076236;28;20209;-85
2022/10/17 04:41:05;;;;;;;5.40;3.15;;;10.70;99.90;;;;;;5076430;28;20285;-83
2022/10/17 04:43:33;;;;;;;4.40;3.58;;;11.00;99.90;;;;;;5095015;28;20186;-84
2022/10/17 04:46:00;;;;;;;9.43;3.50;;;10.70;99.90;;;;;;5079216;28;20538;-85
2022/10/17 04:48:28;;;;;;;10.88;3.83;;;11.00;99.90;;;;;;5079797;28;20182;-84
2022/10/17 04:50:59;;;;;;;7.65;4.25;;;10.50;99.90;;;;;;5097292;28;20265;-84
2022/10/17 04:53:25;;;;;;;6.07;3.72;;;10.50;99.90;;;;;;5096626;28;20246;-84
2022/10/17 04:55:51;;;;;;;6.35;3.97;;;;;;;;;;5095301;28;20245;-86
2022/10/17 04:58:17;;;;;;;5.47;3.42;;;10.20;99.90;;;;;;5077282;28;20182;-83
2022/10/17 05:00:43;;;;;;;4.43;3.40;;;;;;;;;;5095212;28;20243;-83
2022/10/17 05:03:09;;;;;;;6.38;3.67;;;10.30;99.90;;;;;;5094354;28;20187;-83
2022/10/17 05:05:39;;;;;;;7.55;3.47;;;10.80;99.90;;;;;;5076321;28;20235;-84
2022/10/17 05:08:07;;;;;;;9.88;3.63;;;10.80;99.90;;;;;;5060222;28;20206;-84
2022/10/17 05:10:41;;;;;;;5.50;3.97;;;10.40;99.90;;;;;;5098348;28;20260;-84
2022/10/17 05:13:08;;;;;;;4.57;3.40;;;10.70;99.90;;;;;;5103317;28;20190;-82
2022/10/17 05:15:34;;;;;;;6.38;4.13;;;10.70;99.90;;;;;;5083672;28;20210;-84
2022/10/17 05:18:00;;;;;;;8.23;4.88;;;;;;;;;;5093707;28;20183;-84
2022/10/17 05:20:27;;;;;;;7.80;4.72;;;10.80;99.90;;;;;;5089547;28;20216;-83
2022/10/17 05:22:53;;;;;;;5.78;3.95;;;10.50;99.90;;;;;;5074725;28;20185;-85
2022/10/17 05:25:19;;;;;;;5.85;4.10;;;;;;;;;;5092214;28;20244;-85
2022/10/17 05:27:45;;;;;;;5.93;3.80;;;10.70;99.90;;;;;;5073303;28;20242;-83
2022/10/17 05:30:11;;;;;;;6.45;3.95;;;;;;;;;;5075734;28;20638;-83
2022/10/17 05:32:37;;;;;;;9.27;4.10;;;10.40;99.90;;;;;;5073832;28;20195;-83
2022/10/17 05:35:03;;;;;;;7.60;3.92;;;10.60;99.90;;;;;;5091616;28;20210;-84
2022/10/17 05:37:30;;;;;;;13.65;6.22;;;10.70;99.90;;;;;;5073124;28;20319;-84
2022/10/17 05:39:56;;;;;;;8.25;4.75;;;10.80;99.90;;;;;;5073722;28;20170;-84
2022/10/17 05:42:22;;;;;;;9.73;4.82;;;;;;;;;;5090674;28;20183;-86
2022/10/17 05:44:49;;;;;;;9.07;4.45;;;;;;;;;;5092432;28;20179;-84
2022/10/17 05:47:15;;;;;;;5.80;3.38;;;;;;;;;;5073896;28;20186;-84
2022/10/17 05:49:40;;;;;;;7.35;4.30;;;10.80;99.90;;;;;;5073685;28;20178;-84
2022/10/17 05:52:07;;;;;;;5.97;3.60;;;;;;;;;;5051098;28;20180;-83
2022/10/17 05:54:32;;;;;;;11.68;3.92;;;11.20;99.90;;;;;;5090951;28;20248;-83
2022/10/17 05:56:58;;;;;;;8.27;3.40;;;;;;;;;;5072504;28;20643;-84
2022/10/17 05:59:26;;;;;;;10.27;4.65;;;11.20;99.90;;;;;;5053968;28;20669;-84
2022/10/17 06:01:52;;;;;;;6.07;3.83;;;11.00;99.90;;;;;;5073595;28;20174;-83
2022/10/17 06:04:18;;;;;;;6.18;4.30;;;11.70;99.90;;;;;;5074254;28;20181;-84
2022/10/17 06:06:44;;;;;;;7.93;4.22;;;11.50;99.90;;;;;;5090775;28;20182;-83
2022/10/17 06:09:10;;;;;;;6.45;4.05;;;;;;;;;;5089889;28;20182;-84
2022/10/17 06:11:36;;;;;;;15.80;4.78;;;11.50;99.90;;;;;;5091365;28;20186;-83
2022/10/17 06:14:02;;;;;;;10.35;5.22;;;11.30;99.90;;;;;;5086695;28;20186;-83
2022/10/17 06:16:28;;;;;;;5.40;3.78;;;11.80;99.90;;;;;;5038171;28;20205;-84
2022/10/17 06:18:54;;;;;;;16.23;5.55;;;;;;;;;;5038825;28;20183;-83
2022/10/17 06:21:25;;;;;;;5.28;4.20;;;11.40;99.90;;;;;;5073723;28;20575;-83
2022/10/17 06:23:52;;;;;;;8.68;4.57;;;11.50;99.90;;;;;;5073864;28;20258;-83
2022/10/17 06:26:18;;;;;;;8.30;3.80;;;12.00;99.90;;;;;;5039738;28;20187;-83
2022/10/17 06:28:44;;;;;;;9.82;4.68;;;12.00;99.90;;;;;;5039218;28;20179;-84
2022/10/17 06:31:13;;;;;;;7.40;4.50;;;12.10;99.90;;;;;;5055825;28;20210;-83
2022/10/17 06:33:39;;;;;;;6.32;3.83;;;11.90;99.90;;;;;;5086979;28;20179;-84
2022/10/17 06:36:06;;;;;;;7.40;3.92;;;12.10;99.90;;;;;;5093359;28;20218;-83
2022/10/17 06:38:33;;;;;;;8.73;5.00;;;12.20;99.90;;;;;;5075255;28;20630;-84
2022/10/17 06:41:07;;;;;;;7.00;4.13;;;12.50;99.90;;;;;;5042358;28;20185;-84
2022/10/17 06:43:37;;;;;;;10.32;4.75;;;12.20;99.90;;;;;;5093836;28;20167;-84
2022/10/17 06:46:03;;;;;;;5.45;3.70;;;12.50;99.90;;;;;;5075716;28;20193;-83
2022/10/17 06:48:29;;;;;;;4.40;2.70;;;;;;;;;;5093753;28;20175;-87
2022/10/17 06:51:03;;;;;;;8.90;3.78;;;12.60;99.90;;;;;;5058609;28;20274;-85
2022/10/17 06:53:31;;;;;;;4.80;3.10;;;13.00;99.90;;;;;;5075562;28;20185;-83
2022/10/17 06:56:01;;;;;;;12.60;4.00;;;13.10;99.90;;;;;;5093009;28;20234;-84
2022/10/17 06:58:28;;;;;;;6.68;3.75;;;12.10;99.90;;;;;;5076345;28;20162;-85
2022/10/17 07:01:06;;;;;;;6.05;3.42;;;13.00;99.90;;;;;;5093186;28;20206;-84
2022/10/17 07:03:33;;;;;;;5.63;3.35;;;;;;;;;;5091609;28;20240;-85
2022/10/17 07:05:59;;;;;;;8.20;3.78;;;13.20;99.90;;;;;;5092656;28;20265;-85
2022/10/17 07:08:25;;;;;;;3.90;3.03;;;13.30;99.90;;;;;;5075243;28;20206;-83
2022/10/17 07:10:51;;;;;;;7.13;4.03;;;13.20;99.90;;;;;;5092887;28;20178;-84
2022/10/17 07:13:17;;;;;;;7.50;5.03;;;13.40;99.90;;;;;;5075029;28;20170;-83
2022/10/17 07:15:43;;;;;;;6.38;3.58;;;13.00;99.90;;;;;;5092790;28;20206;-84
2022/10/17 07:18:09;;;;;;;10.98;4.00;;;;;;;;;;5092042;28;20184;-84
2022/10/17 07:20:35;;;;;;;7.35;3.92;;;;;;;;;;5092276;28;20175;-86
2022/10/17 07:23:01;;;;;;;5.13;3.72;;;13.90;99.90;;;;;;5074736;28;20170;-84
2022/10/17 07:25:27;;;;;;;7.13;3.30;;;;;;;;;;5074390;28;20247;-84
2022/10/17 07:27:53;;;;;;;7.28;3.55;;;13.70;99.90;;;;;;5075088;28;20627;-84
2022/10/17 07:30:19;;;;;;;7.13;3.85;;;14.00;99.90;;;;;;5093272;28;20185;-84
2022/10/17 07:32:45;;;;;;;6.53;3.53;;;14.40;99.90;;;;;;5093009;28;20198;-84
2022/10/17 07:35:11;;;;;;;7.00;4.38;;;14.60;99.90;;;;;;5093472;28;20552;-83
2022/10/17 07:37:38;;;;;;;5.15;3.80;;;17.60;99.90;;;;;;5075500;28;20198;-83
2022/10/17 07:40:06;;;;;;;3.50;3.03;;;14.60;99.90;;;;;;5093636;28;20183;-84
2022/10/17 07:42:37;;;;;;;10.20;4.53;;;15.00;99.90;;;;;;5093070;28;20171;-84
2022/10/17 07:45:04;;;;;;;6.70;4.25;;;14.60;99.90;;;;;;5093236;28;20182;-84
2022/10/17 07:47:31;;;;;;;6.18;4.20;;;15.00;99.90;;;;;;5075396;28;20199;-84
2022/10/17 07:49:57;;;;;;;7.20;3.25;;;14.70;99.90;;;;;;5093285;28;20175;-84
2022/10/17 07:52:23;;;;;;;7.60;4.22;;;;;;;;;;5075611;28;20228;-84
2022/10/17 07:54:49;;;;;;;6.90;4.00;;;14.60;99.90;;;;;;5075574;28;20284;-85
2022/10/17 07:57:14;;;;;;;6.30;3.50;;;14.80;99.90;;;;;;5077894;28;20162;-83
2022/10/17 07:59:40;;;;;;;9.35;4.05;;;;;;;;;;5098308;28;20174;-89
2022/10/17 08:02:13;;;;;;;6.28;3.35;;;15.30;99.90;;;;;;5117653;27;20167;-83
2022/10/17 08:04:39;;;;;;;7.63;3.95;;;;;;;;;;5099950;28;20175;-84
2022/10/17 08:07:04;;;;;;;7.47;3.75;;;15.40;99.90;;;;;;5080842;28;20211;-84
2022/10/17 08:09:30;;;;;;;5.93;4.00;;;;;;;;;;5075465;28;20261;-84
2022/10/17 08:11:56;;;;;;;8.77;3.58;;;15.70;99.90;;;;;;5089575;28;20174;-84
2022/10/17 08:14:21;;;;;;;9.80;4.97;;;15.40;99.90;;;;;;5083796;27;20175;-85
2022/10/17 08:16:47;;;;;;;5.68;3.67;;;;;;;;;;5086398;28;20257;-87
2022/10/17 08:19:13;;;;;;;5.30;3.53;;;16.20;99.90;;;;;;5096006;28;20189;-85
2022/10/17 08:21:40;;;;;;;9.15;4.35;;;15.80;99.90;;;;;;5096414;28;20193;-85
2022/10/17 08:24:06;;;;;;;6.70;3.75;;;;;;;;;;5078681;28;20178;-85
2022/10/17 08:26:32;;;;;;;8.43;4.20;;;;;;;;;;5078663;28;20236;-85
2022/10/17 08:28:58;;;;;;;9.63;3.95;;;15.80;99.90;;;;;;5078170;28;20182;-84
2022/10/17 08:31:24;;;;;;;6.97;4.38;;;;;;;;;;5078332;28;20178;-84
2022/10/17 08:33:50;;;;;;;8.10;4.00;;;16.00;99.90;;;;;;5061207;28;20194;-84
2022/10/17 08:36:18;;;;;;;6.68;3.83;;;16.10;99.90;;;;;;5061196;28;20198;-84
2022/10/17 08:38:44;;;;;;;5.07;3.15;;;;;;;;;;5095939;28;20186;-88
2022/10/17 08:41:29;;;;;;;8.07;4.10;;;16.40;99.90;;;;;;5095918;28;20244;-85
2022/10/17 08:44:11;;;;;;;8.10;4.53;;;15.30;99.90;;;;;;5095592;28;20181;-85
2022/10/17 08:46:40;;;;;;;7.82;4.03;;;16.60;99.90;;;;;;5077849;28;20239;-85
2022/10/17 08:49:11;;;;;;;6.38;4.35;;;16.70;99.90;;;;;;5077449;28;20724;-85
2022/10/17 08:51:50;;;;;;;7.68;4.60;;;17.30;99.90;;;;;;5096052;28;20167;-85
2022/10/17 08:54:18;;;;;;;7.03;3.83;;;;;;;;;;5096113;28;20694;-84
2022/10/17 08:56:47;;;;;;;9.38;4.63;;;16.70;99.90;;;;;;5096412;28;20297;-85
2022/10/17 08:59:17;;;;;;;7.10;3.75;;;17.00;99.90;;;;;;5095948;28;20243;-85
2022/10/17 09:01:43;;;;;;;6.57;3.97;;;;;;;;;;5096327;28;20173;-85
2022/10/17 09:04:42;;;;;;;8.27;4.10;;;16.80;99.90;;;;;;5095231;28;20170;-85
2022/10/17 09:07:23;;;;;;;7.68;4.10;;;17.20;99.90;;;;;;5077544;28;20198;-85
2022/10/17 09:10:14;;;;;;;8.88;4.55;;;17.00;99.90;;;;;;5096060;28;20608;-86
2022/10/17 09:12:59;;;;;;;4.72;3.22;;;17.70;99.90;;;;;;5095784;28;20194;-85
2022/10/17 09:15:42;;;;;;;8.20;4.20;;;17.70;99.90;;;;;;5095143;28;20190;-85
2022/10/17 09:18:14;;;;;;;11.52;4.70;;;17.50;99.90;;;;;;5077056;28;20188;-85
2022/10/17 09:20:50;;;;;;;6.28;3.85;;;18.20;99.90;;;;;;5077162;28;20182;-85
2022/10/17 09:23:23;;;;;;;10.55;4.25;;;17.90;99.90;;;;;;5095072;28;20162;-85
2022/10/17 09:25:57;;;;;;;6.55;3.63;;;18.20;99.90;;;;;;5076727;28;20179;-85
2022/10/17 09:28:29;;;;;;;6.57;3.40;;;18.00;99.90;;;;;;5094913;28;20249;-85
2022/10/17 09:31:03;;;;;;;7.15;3.95;;;18.10;99.90;;;;;;5076334;28;20179;-86
2022/10/17 09:33:39;;;;;;;8.00;3.63;;;17.80;99.90;;;;;;5094243;28;20174;-85
2022/10/17 09:36:28;;;;;;;12.68;4.13;;;18.30;99.90;;;;;;5094436;28;20220;-85
2022/10/17 09:39:16;;;;;;;5.72;3.80;;;18.10;99.90;;;;;;5075421;28;20194;-87
2022/10/17 09:41:48;;;;;;;8.20;3.75;;;18.70;99.90;;;;;;5076747;28;20269;-86
2022/10/17 09:44:21;;;;;;;6.60;3.80;;;18.60;99.90;;;;;;5094547;28;20224;-86
2022/10/17 09:47:05;;;;;;;6.43;3.35;;;18.90;99.90;;;;;;5094757;28;20668;-86
2022/10/17 09:49:33;;;;;;;9.18;3.75;;;19.00;99.90;;;;;;5095057;28;20683;-86
2022/10/17 09:52:02;;;;;;;8.57;3.90;;;18.60;99.90;;;;;;5077011;28;20178;-86
2022/10/17 09:54:49;;;;;;;8.05;3.80;;;19.00;99.90;;;;;;5097050;28;20222;-85
2022/10/17 09:57:17;;;;;;;8.07;3.75;;;18.80;99.90;;;;;;5096265;28;20186;-85
2022/10/17 09:59:56;;;;;;;6.82;4.00;;;19.00;99.90;;;;;;5078972;28;20194;-86
2022/10/17 10:02:23;;;;;;;6.57;3.75;;;19.40;99.90;;;;;;5077256;28;20174;-87
2022/10/17 10:05:03;;;;;;;7.07;4.35;;;19.50;99.90;;;;;;5059988;28;20182;-86
2022/10/17 10:07:31;;;;;;;7.50;4.03;;;19.40;99.90;;;;;;5094202;28;20163;-86
2022/10/17 10:09:58;;;;;;;5.15;3.35;;;19.90;99.90;;;;;;5059480;28;20202;-86
2022/10/17 10:12:30;;;;;;;7.30;4.40;;;19.90;99.90;;;;;;5094525;28;20210;-87
2022/10/17 10:14:56;;;;;;;7.43;4.00;;;;;;;;;;5076331;28;20175;-86
2022/10/17 10:17:41;;;;;;;6.32;3.67;;;19.60;99.90;;;;;;5059661;28;20550;-85
2022/10/17 10:20:25;;;;;;;9.57;4.70;;;19.60;99.90;;;;;;5058770;28;20239;-84
2022/10/17 10:23:13;;;;;;;5.97;3.70;;;20.10;99.90;;;;;;5094623;28;20182;-86
2022/10/17 10:26:00;;;;;;;8.68;4.22;;;20.00;99.90;;;;;;5076269;28;20174;-85
2022/10/17 10:28:34;;;;;;;5.65;3.55;;;20.00;99.90;;;;;;5076165;28;20269;-85
2022/10/17 10:31:05;;;;;;;9.57;4.00;;;19.70;99.90;;;;;;5094083;28;20173;-86
2022/10/17 10:33:34;;;;;;;11.00;4.53;;;20.20;99.90;;;;;;5094344;28;20194;-85
2022/10/17 10:36:04;;;;;;;7.82;4.28;;;20.20;99.90;;;;;;5094259;28;20221;-87
2022/10/17 10:38:31;;;;;;;7.85;3.83;;;;;;;;;;5075314;28;20182;-85
2022/10/17 10:41:04;;;;;;;5.78;4.00;;;20.20;99.90;;;;;;5076008;28;20170;-85
2022/10/17 10:43:41;;;;;;;10.15;4.70;;;20.20;99.90;;;;;;5075768;28;20238;-85
2022/10/17 10:46:19;;;;;;;8.55;4.78;;;;;;;;;;5093795;28;20232;-86
2022/10/17 10:49:00;;;;;;;9.27;4.15;;;20.40;99.90;;;;;;5075606;28;20592;-86
2022/10/17 10:51:41;;;;;;;9.45;4.32;;;20.40;99.90;;;;;;5075178;28;20204;-85
2022/10/17 10:54:31;;;;;;;8.57;3.17;;;20.50;99.90;;;;;;5093119;28;20253;-85
2022/10/17 10:57:03;;;;;;;6.72;3.65;;;20.40;99.90;;;;;;5093267;28;20183;-85
2022/10/17 10:59:36;;;;;;;7.45;3.90;;;20.00;99.90;;;;;;5075757;28;20198;-85
2022/10/17 11:02:20;;;;;;;10.05;4.20;;;20.00;99.90;;;;;;5093098;28;20162;-85
2022/10/17 11:05:02;;;;;;;6.40;3.72;;;20.40;99.90;;;;;;5073846;28;20167;-85
2022/10/17 11:07:37;;;;;;;6.85;3.47;;;20.20;99.90;;;;;;5055013;28;20178;-85
2022/10/17 11:10:07;;;;;;;14.40;6.82;;;;;;;;;;5055171;28;20175;-86
2022/10/17 11:12:34;;;;;;;7.90;4.65;;;20.40;99.90;;;;;;5072870;28;20174;-85
2022/10/17 11:15:00;;;;;;;6.10;3.40;;;;;;;;;;5073477;28;20211;-85
2022/10/17 11:17:38;;;;;;;9.60;4.60;;;20.50;99.90;;;;;;5072932;28;20645;-86
2022/10/17 11:20:11;;;;;;;8.45;3.58;;;20.60;99.90;;;;;;5073226;28;20170;-86
2022/10/17 11:23:00;;;;;;;6.95;3.63;;;21.30;99.90;;;;;;5055188;28;20190;-85
2022/10/17 11:25:36;;;;;;;9.13;4.03;;;20.50;99.90;;;;;;5072848;28;20175;-85
2022/10/17 11:28:09;;;;;;;10.13;4.43;;;21.00;99.90;;;;;;5072909;28;20179;-87
2022/10/17 11:30:44;;;;;;;7.68;3.75;;;20.70;99.90;;;;;;5073745;28;20182;-86
2022/10/17 11:33:18;;;;;;;6.70;3.75;;;21.00;99.90;;;;;;5092903;28;20166;-86
2022/10/17 11:35:48;;;;;;;10.45;4.88;;;21.10;99.90;;;;;;5077263;28;20374;-85
2022/10/17 11:38:24;;;;;;;13.27;4.57;;;20.60;99.90;;;;;;5077501;28;20183;-86
2022/10/17 11:40:52;;;;;;;5.20;3.42;;;21.00;99.90;;;;;;5075845;28;20174;-85
2022/10/17 11:43:34;;;;;;;9.23;4.70;;;20.90;99.90;;;;;;5074670;28;20186;-86
2022/10/17 11:46:25;;;;;;;12.60;4.90;;;20.60;99.90;;;;;;5075076;28;20641;-86
2022/10/17 11:49:03;;;;;;;7.68;4.28;;;21.10;99.90;;;;;;5094955;28;20227;-86
2022/10/17 11:51:35;;;;;;;12.20;4.97;;;20.90;99.90;;;;;;5096641;28;20284;-86
2022/10/17 11:54:34;;;;;;;8.93;5.32;;;21.00;99.90;;;;;;5096826;28;20229;-86
2022/10/17 11:57:19;;;;;;;9.27;4.78;;;21.30;99.90;;;;;;5077349;28;20660;-86
2022/10/17 12:00:23;;;;;;;9.77;5.13;;;20.50;99.90;;;;;;5078647;28;20283;-85
2022/10/17 12:03:07;;;;;;;12.15;4.72;;;20.90;99.90;;;;;;5079796;28;20605;-85
2022/10/17 12:05:51;;;;;;;8.27;4.57;;;22.10;99.90;;;;;;5078147;28;20186;-86
2022/10/17 12:08:27;;;;;;;12.48;5.85;;;20.80;99.90;;;;;;5096226;28;20167;-86
2022/10/17 12:11:05;;;;;;;13.73;5.38;;;21.30;99.90;;;;;;5078377;28;20204;-86
2022/10/17 12:13:31;;;;;;;9.02;4.72;;;21.00;99.90;;;;;;5077984;28;20183;-86
2022/10/17 12:16:17;;;;;;;8.45;5.22;;;21.50;99.90;;;;;;5077763;28;20585;-86
2022/10/17 12:18:43;;;;;;;7.65;4.85;;;;;;;;;;5077948;28;20220;-85
2022/10/17 12:21:09;;;;;;;6.55;4.15;;;;;;;;;;5078038;28;20174;-85
2022/10/17 12:23:37;;;;;;;7.20;4.03;;;;;;;;;;5095268;28;20257;-85
2022/10/17 12:26:06;;;;;;;9.55;5.03;;;22.10;99.90;;;;;;5076944;28;20178;-86
2022/10/17 12:28:44;;;;;;;8.45;3.83;;;22.00;99.90;;;;;;5095484;28;20178;-85
2022/10/17 12:31:16;;;;;;;9.52;4.55;;;22.30;99.90;;;;;;5077781;28;20587;-85
2022/10/17 12:33:45;;;;;;;7.47;4.32;;;22.80;99.90;;;;;;5077004;28;20174;-87
2022/10/17 12:36:25;;;;;;;9.13;5.13;;;22.80;99.90;;;;;;5077457;28;20202;-86
2022/10/17 12:39:00;;;;;;;8.65;4.15;;;23.10;99.90;;;;;;5094675;28;20175;-86
2022/10/17 12:41:38;;;;;;;6.55;4.32;;;22.00;99.90;;;;;;5073158;28;20674;-87
2022/10/17 12:44:13;;;;;;;6.65;3.85;;;21.90;99.90;;;;;;5076505;28;20742;-86
2022/10/17 12:47:09;;;;;;;13.32;4.95;;;22.60;99.90;;;;;;5074665;28;20542;-87
2022/10/17 12:49:35;;;;;;;8.13;3.88;;;;;;;;;;5060620;28;20324;-87
2022/10/17 12:52:10;;;;;;;7.70;4.15;;;22.70;99.90;;;;;;5094414;28;20659;-87
2022/10/17 12:54:42;;;;;;;8.45;4.18;;;22.60;99.90;;;;;;5074347;28;20705;-85
2022/10/17 12:57:37;;;;;;;6.68;4.35;;;24.00;99.90;;;;;;5093110;28;20667;-86
2022/10/17 13:00:20;;;;;;;7.05;4.18;;;24.00;99.90;;;;;;5071815;28;20243;-85
2022/10/17 13:02:48;;;;;;;9.23;4.40;;;24.40;99.90;;;;;;5093662;28;20623;-84
2022/10/17 13:05:23;;;;;;;7.55;4.15;;;25.30;97.40;;;;;;5094825;28;20270;-86
2022/10/17 13:07:49;;;;;;;7.95;3.70;;;;;;;;;;5075468;28;20178;-86
2022/10/17 13:10:20;;;;;;;13.68;4.65;;;26.80;90.90;;;;;;5094429;28;20691;-85
2022/10/17 13:12:47;;;;;;;12.38;5.47;;;;;;;;;;5092832;28;20170;-87
2022/10/17 13:15:17;;;;;;;5.78;3.65;;;27.40;84.60;;;;;;5076894;28;20352;-86
2022/10/17 13:17:43;;;;;;;7.88;4.30;;;;;;;;;;5094755;28;21239;-85
2022/10/17 13:20:24;;;;;;;9.52;4.82;;;28.30;81.90;;;;;;5091947;28;20174;-87
2022/10/17 13:22:50;;;;;;;6.22;3.80;;;;;;;;;;5092558;28;20262;-86
2022/10/17 13:25:18;;;;;;;8.18;4.47;;;28.40;76.10;;;;;;5076391;28;20186;-85